Time;durP1;ratioP1;P1;durP2;ratioP2;P2;SDS_P1;SDS_P2;PMS_P1;PMS_P2;Temp;Humidity;BMP_temperature;BMP_pressure;BME280_temperature;BME280_humidity;BME280_pressure;Samples;Min_cycle;Max_cycle;Signal;HPM_P1;HPM_P2
2024/04/07 00:00:39;;;;;;;5.88;3.10;;;12.60;94.40;;;;;;4996521;28;20067;-81
2024/04/07 00:03:05;;;;;;;6.82;2.80;;;12.60;94.10;;;;;;4996788;28;20467;-81
2024/04/07 00:05:31;;;;;;;5.13;2.88;;;12.60;94.10;;;;;;4996216;28;20104;-80
2024/04/07 00:07:57;;;;;;;6.53;2.97;;;12.50;93.90;;;;;;4996791;28;20100;-80
2024/04/07 00:10:23;;;;;;;4.53;2.13;;;12.40;94.30;;;;;;4996519;28;20060;-81
2024/04/07 00:12:49;;;;;;;3.45;2.00;;;12.40;94.40;;;;;;4996364;28;20433;-81
2024/04/07 00:15:15;;;;;;;4.68;2.00;;;12.40;94.50;;;;;;4966373;28;20056;-78
2024/04/07 00:17:41;;;;;;;3.25;1.75;;;12.30;94.60;;;;;;4996529;28;20457;-79
2024/04/07 00:20:07;;;;;;;4.68;2.00;;;12.30;94.60;;;;;;4996162;28;20076;-79
2024/04/07 00:22:33;;;;;;;4.45;1.60;;;12.20;94.60;;;;;;4996283;28;20061;-80
2024/04/07 00:25:03;;;;;;;3.70;1.75;;;12.20;95.10;;;;;;4996461;28;20057;-80
2024/04/07 00:27:29;;;;;;;3.08;1.67;;;12.10;94.80;;;;;;4996476;28;20053;-80
2024/04/07 00:29:55;;;;;;;3.92;1.77;;;12.10;94.80;;;;;;4994440;28;20108;-81
2024/04/07 00:32:23;;;;;;;3.28;1.50;;;12.00;94.80;;;;;;4992938;28;20050;-80
2024/04/07 00:34:50;;;;;;;3.65;1.88;;;12.00;95.00;;;;;;4994394;28;20093;-80
2024/04/07 00:37:26;;;;;;;2.13;1.75;;;11.90;94.90;;;;;;4995725;28;20054;-79
2024/04/07 00:39:52;;;;;;;5.13;1.80;;;11.80;95.80;;;;;;4979411;28;20050;-80
2024/04/07 00:42:18;;;;;;;4.38;2.03;;;11.80;95.90;;;;;;4994238;28;20054;-79
2024/04/07 00:44:45;;;;;;;2.47;1.70;;;11.80;95.50;;;;;;4975637;28;20429;-81
2024/04/07 00:47:11;;;;;;;29.13;16.77;;;11.70;96.50;;;;;;4993359;28;20057;-79
2024/04/07 00:49:41;;;;;;;20.98;12.82;;;11.70;96.40;;;;;;5009903;28;20482;-80
2024/04/07 00:52:07;;;;;;;9.32;5.15;;;11.70;96.10;;;;;;5003820;28;20054;-81
2024/04/07 00:54:36;;;;;;;3.90;2.38;;;11.70;96.40;;;;;;4992495;28;20434;-80
2024/04/07 00:57:04;;;;;;;4.30;2.50;;;11.70;97.00;;;;;;4978325;28;20065;-81
2024/04/07 00:59:30;;;;;;;2.53;1.80;;;11.70;96.50;;;;;;4995594;28;20065;-79
2024/04/07 01:01:56;;;;;;;3.20;2.03;;;11.70;96.80;;;;;;4993352;28;20120;-79
2024/04/07 01:04:22;;;;;;;3.88;2.00;;;11.70;96.80;;;;;;4974523;28;20053;-81
2024/04/07 01:06:48;;;;;;;4.72;2.17;;;11.60;96.80;;;;;;4993978;28;20507;-81
2024/04/07 01:09:16;;;;;;;5.30;2.13;;;11.60;96.30;;;;;;4993773;28;20054;-80
2024/04/07 01:11:42;;;;;;;4.68;2.20;;;11.60;96.70;;;;;;5008269;28;20046;-80
2024/04/07 01:14:08;;;;;;;3.40;1.70;;;11.60;96.50;;;;;;4993511;28;20103;-80
2024/04/07 01:16:34;;;;;;;6.57;2.28;;;11.60;96.70;;;;;;4993352;28;20479;-81
2024/04/07 01:19:02;;;;;;;3.15;2.17;;;11.50;97.10;;;;;;4993869;28;20132;-80
2024/04/07 01:21:28;;;;;;;5.38;1.98;;;11.50;97.10;;;;;;4993755;28;20049;-81
2024/04/07 01:23:56;;;;;;;3.35;2.00;;;11.50;96.70;;;;;;4994903;28;20065;-79
2024/04/07 01:26:24;;;;;;;4.65;1.83;;;11.50;96.70;;;;;;5011344;28;20054;-80
2024/04/07 01:28:50;;;;;;;2.55;1.77;;;11.40;97.00;;;;;;4995216;28;20061;-81
2024/04/07 01:31:16;;;;;;;2.22;1.75;;;11.40;96.90;;;;;;4994906;28;20050;-81
2024/04/07 01:33:42;;;;;;;4.40;2.10;;;11.30;97.00;;;;;;4994999;28;20141;-81
2024/04/07 01:36:08;;;;;;;4.15;1.98;;;11.30;97.10;;;;;;5011299;28;20058;-80
2024/04/07 01:38:34;;;;;;;3.45;2.15;;;11.30;97.10;;;;;;4994357;28;20364;-80
2024/04/07 01:41:02;;;;;;;4.57;1.80;;;11.30;96.60;;;;;;4994974;28;20058;-80
2024/04/07 01:43:28;;;;;;;2.90;1.77;;;11.30;96.70;;;;;;4994738;28;20084;-80
2024/04/07 01:45:54;;;;;;;4.90;2.05;;;11.20;96.70;;;;;;4994643;28;20046;-78
2024/04/07 01:48:20;;;;;;;3.90;2.15;;;11.20;97.20;;;;;;5011426;28;20557;-80
2024/04/07 01:50:47;;;;;;;4.32;1.70;;;11.10;97.50;;;;;;4994825;28;20057;-80
2024/04/07 01:53:13;;;;;;;4.25;1.80;;;11.20;97.70;;;;;;4995143;28;20057;-80
2024/04/07 01:55:39;;;;;;;4.07;1.90;;;11.20;97.60;;;;;;4994590;28;20459;-80
2024/04/07 01:58:06;;;;;;;3.75;2.10;;;11.20;97.50;;;;;;4994879;28;20050;-81
2024/04/07 02:00:32;;;;;;;3.70;1.88;;;11.10;97.00;;;;;;4994839;28;20115;-80
2024/04/07 02:02:58;;;;;;;3.17;2.00;;;11.10;97.30;;;;;;4994681;28;20062;-80
2024/04/07 02:05:24;;;;;;;5.32;2.30;;;11.10;97.10;;;;;;4994806;28;20123;-80
2024/04/07 02:07:49;;;;;;;6.28;2.25;;;11.10;97.20;;;;;;4994877;28;20463;-80
2024/04/07 02:10:16;;;;;;;2.17;1.92;;;11.10;97.00;;;;;;4994776;28;20168;-80
2024/04/07 02:12:42;;;;;;;2.80;2.25;;;11.10;96.70;;;;;;4978603;28;20384;-80
2024/04/07 02:15:08;;;;;;;4.15;1.95;;;11.10;96.70;;;;;;4994547;28;20050;-80
2024/04/07 02:17:36;;;;;;;3.97;2.50;;;11.00;96.70;;;;;;4994638;28;20077;-80
2024/04/07 02:20:02;;;;;;;9.57;2.30;;;11.00;96.80;;;;;;4993501;28;20050;-80
2024/04/07 02:22:28;;;;;;;3.58;2.00;;;10.90;97.20;;;;;;4995967;28;20433;-80
2024/04/07 02:24:54;;;;;;;4.18;2.15;;;10.90;97.20;;;;;;4981491;28;20042;-80
2024/04/07 02:27:20;;;;;;;2.47;2.03;;;10.90;97.10;;;;;;4998326;28;20070;-80
2024/04/07 02:29:47;;;;;;;3.15;2.15;;;10.80;96.50;;;;;;4998146;28;20057;-81
2024/04/07 02:32:13;;;;;;;5.57;1.80;;;10.80;96.80;;;;;;4998199;28;20410;-80
2024/04/07 02:34:39;;;;;;;4.20;1.80;;;10.80;96.70;;;;;;4998206;28;20042;-81
2024/04/07 02:37:05;;;;;;;1.75;1.65;;;10.70;97.10;;;;;;4998064;28;20069;-81
2024/04/07 02:39:33;;;;;;;4.50;2.10;;;10.70;97.00;;;;;;4997864;28;20573;-80
2024/04/07 02:41:59;;;;;;;6.78;1.90;;;10.70;97.10;;;;;;5014436;28;20057;-80
2024/04/07 02:50:01;;;;;;;2.60;1.65;;;10.60;97.50;;;;;;4998019;28;20085;-80
2024/04/07 02:52:27;;;;;;;2.28;1.70;;;10.50;97.20;;;;;;4997786;28;20046;-80
2024/04/07 02:54:53;;;;;;;5.28;1.80;;;10.50;97.40;;;;;;4997915;28;20141;-80
2024/04/07 02:57:21;;;;;;;2.58;1.80;;;10.50;97.60;;;;;;4997753;28;20060;-80
2024/04/07 02:59:49;;;;;;;5.05;1.60;;;10.40;97.50;;;;;;4994767;28;20045;-79
2024/04/07 03:02:15;;;;;;;2.60;1.92;;;10.40;97.80;;;;;;4997554;28;20058;-80
2024/04/07 03:04:41;;;;;;;4.70;1.77;;;10.30;97.70;;;;;;4996526;28;20539;-79
2024/04/07 03:07:07;;;;;;;2.13;1.50;;;10.30;97.60;;;;;;4997732;28;20078;-79
2024/04/07 03:09:33;;;;;;;2.17;1.90;;;10.30;98.40;;;;;;4997918;28;20112;-79
2024/04/07 03:11:59;;;;;;;2.47;1.95;;;10.20;98.70;;;;;;4997529;28;20485;-80
2024/04/07 03:14:25;;;;;;;6.30;1.63;;;10.20;98.20;;;;;;4997754;28;20050;-81
2024/04/07 03:16:51;;;;;;;5.75;1.60;;;10.20;98.70;;;;;;4996283;28;20497;-80
2024/04/07 03:19:17;;;;;;;2.92;1.38;;;10.20;98.50;;;;;;5012305;28;20147;-79
2024/04/07 03:21:43;;;;;;;2.67;1.85;;;10.10;98.20;;;;;;4996752;28;20049;-81
2024/04/07 03:24:08;;;;;;;3.33;1.92;;;10.10;98.00;;;;;;4997397;28;20054;-79
2024/04/07 03:26:34;;;;;;;5.43;1.77;;;10.10;99.00;;;;;;4996213;28;20049;-80
2024/04/07 03:29:00;;;;;;;2.75;1.95;;;10.00;99.00;;;;;;4997203;28;20795;-80
2024/04/07 03:31:26;;;;;;;5.63;2.00;;;10.00;99.20;;;;;;4997214;28;20132;-80
2024/04/07 03:33:52;;;;;;;2.00;1.80;;;10.00;99.30;;;;;;4996878;28;20053;-81
2024/04/07 03:36:18;;;;;;;4.10;2.15;;;9.90;99.80;;;;;;4997147;28;20068;-81
2024/04/07 03:38:44;;;;;;;6.13;2.05;;;9.90;99.50;;;;;;4997154;28;20085;-80
2024/04/07 03:41:13;;;;;;;4.35;2.17;;;9.80;99.60;;;;;;4997332;28;20065;-81
2024/04/07 03:43:38;;;;;;;2.45;2.05;;;9.80;99.90;;;;;;4978839;28;20054;-80
2024/04/07 03:46:04;;;;;;;6.07;2.10;;;9.80;99.90;;;;;;4996714;28;20064;-81
2024/04/07 03:48:30;;;;;;;6.40;1.77;;;9.80;99.80;;;;;;4996904;28;20089;-80
2024/04/07 03:50:57;;;;;;;5.97;2.10;;;9.70;99.70;;;;;;4997018;28;20069;-81
2024/04/07 03:53:27;;;;;;;3.88;1.83;;;9.60;99.60;;;;;;4996581;28;20057;-80
2024/04/07 03:55:53;;;;;;;3.30;2.05;;;9.60;99.90;;;;;;4996565;28;20050;-80
2024/04/07 03:58:19;;;;;;;3.38;1.90;;;9.60;99.90;;;;;;4996706;28;20064;-80
2024/04/07 04:00:45;;;;;;;1.80;1.70;;;9.60;99.90;;;;;;4977379;28;20101;-81
2024/04/07 04:03:10;;;;;;;3.20;1.88;;;9.50;99.90;;;;;;4996536;28;20058;-80
2024/04/07 04:05:36;;;;;;;2.58;2.17;;;9.50;99.90;;;;;;4996468;28;20053;-80
2024/04/07 04:08:03;;;;;;;3.88;2.25;;;9.50;99.90;;;;;;4996557;28;20049;-81
2024/04/07 04:10:28;;;;;;;2.45;2.00;;;9.50;99.90;;;;;;4996706;28;20046;-80
2024/04/07 04:12:54;;;;;;;4.03;2.47;;;9.50;99.90;;;;;;4996223;28;20065;-79
2024/04/07 04:15:23;;;;;;;2.53;1.95;;;9.60;99.90;;;;;;4996366;28;20100;-79
2024/04/07 04:17:49;;;;;;;2.88;1.95;;;9.50;99.90;;;;;;4996627;28;20046;-80
2024/04/07 04:20:15;;;;;;;3.25;2.20;;;9.50;99.90;;;;;;4996206;28;20359;-80
2024/04/07 04:22:44;;;;;;;2.13;1.73;;;9.40;99.90;;;;;;4996206;28;20207;-80
2024/04/07 04:25:10;;;;;;;6.47;2.00;;;9.40;99.90;;;;;;4994617;28;20245;-80
2024/04/07 04:27:36;;;;;;;2.97;2.17;;;9.40;99.90;;;;;;5012501;28;20060;-80
2024/04/07 04:30:05;;;;;;;3.17;2.03;;;9.40;99.90;;;;;;4996302;28;20072;-79
2024/04/07 04:32:32;;;;;;;4.30;1.85;;;9.40;99.90;;;;;;4995852;28;20478;-80
2024/04/07 04:35:00;;;;;;;4.28;2.15;;;9.40;99.90;;;;;;5011856;28;20046;-80
2024/04/07 04:37:26;;;;;;;6.53;2.47;;;9.40;99.80;;;;;;4995128;28;20049;-78
2024/04/07 04:39:52;;;;;;;3.40;2.55;;;9.30;99.90;;;;;;4996148;28;20133;-80
2024/04/07 04:42:18;;;;;;;2.70;2.30;;;9.20;99.90;;;;;;4996278;28;20489;-77
2024/04/07 04:44:44;;;;;;;2.95;2.28;;;9.20;99.90;;;;;;4994968;28;20119;-79
2024/04/07 04:47:10;;;;;;;7.10;2.20;;;9.10;99.90;;;;;;4995696;28;20093;-77
2024/04/07 04:49:35;;;;;;;5.53;2.40;;;9.10;99.90;;;;;;4995046;28;20052;-78
2024/04/07 04:52:01;;;;;;;3.25;2.28;;;9.10;99.90;;;;;;4995864;28;20062;-78
2024/04/07 04:54:27;;;;;;;3.35;2.10;;;9.10;99.90;;;;;;4995729;28;20471;-77
2024/04/07 04:56:53;;;;;;;3.35;2.00;;;9.10;99.90;;;;;;4995855;28;20399;-78
2024/04/07 04:59:19;;;;;;;3.08;2.17;;;9.20;99.90;;;;;;4996079;28;20066;-79
2024/04/07 05:01:45;;;;;;;4.53;2.00;;;9.20;99.90;;;;;;4995741;28;20053;-78
2024/04/07 05:04:12;;;;;;;4.40;2.03;;;9.20;99.90;;;;;;4995509;28;20120;-78
2024/04/07 05:06:37;;;;;;;2.83;2.20;;;9.10;99.90;;;;;;5010955;28;20057;-80
2024/04/07 05:09:09;;;;;;;2.50;2.00;;;9.10;99.90;;;;;;4995867;28;20131;-79
2024/04/07 05:11:35;;;;;;;3.50;2.25;;;9.10;99.90;;;;;;4995718;28;20064;-78
2024/04/07 05:14:01;;;;;;;3.33;2.10;;;9.10;99.90;;;;;;4995772;28;20151;-78
2024/04/07 05:16:27;;;;;;;4.95;2.10;;;9.10;99.90;;;;;;4995705;28;20483;-78
2024/04/07 05:18:53;;;;;;;4.88;1.85;;;9.10;99.90;;;;;;5011094;28;20092;-78
2024/04/07 05:21:19;;;;;;;3.05;2.40;;;9.10;99.90;;;;;;4994485;28;20142;-78
2024/04/07 05:23:45;;;;;;;6.20;2.15;;;9.20;99.90;;;;;;4995263;28;20089;-78
2024/04/07 05:26:12;;;;;;;4.50;2.00;;;9.20;99.90;;;;;;5011642;28;20132;-78
2024/04/07 05:28:38;;;;;;;6.22;2.22;;;9.20;99.90;;;;;;4994933;28;20509;-79
2024/04/07 05:31:10;;;;;;;4.40;3.03;;;9.30;99.90;;;;;;4995492;28;20108;-78
2024/04/07 05:33:41;;;;;;;5.47;2.90;;;9.20;99.90;;;;;;4995298;28;20053;-78
2024/04/07 05:36:08;;;;;;;11.45;3.15;;;9.20;99.90;;;;;;4995933;28;20053;-78
2024/04/07 05:38:38;;;;;;;8.60;3.38;;;9.20;99.90;;;;;;4995232;28;20058;-78
2024/04/07 05:41:04;;;;;;;5.45;3.65;;;9.30;99.90;;;;;;4977441;28;20054;-79
2024/04/07 05:43:32;;;;;;;6.13;3.88;;;9.30;99.90;;;;;;4993997;28;20073;-78
2024/04/07 05:46:07;;;;;;;6.28;2.80;;;9.30;99.90;;;;;;4995083;28;20430;-78
2024/04/07 05:48:34;;;;;;;4.50;3.00;;;9.40;99.90;;;;;;4994791;28;20073;-79
2024/04/07 05:51:00;;;;;;;6.50;2.78;;;9.50;99.90;;;;;;4994631;28;20054;-78
2024/04/07 05:53:27;;;;;;;4.43;3.00;;;9.50;99.90;;;;;;4994950;28;20057;-79
2024/04/07 05:55:55;;;;;;;5.93;2.83;;;9.60;99.90;;;;;;4995332;28;20062;-79
2024/04/07 05:58:23;;;;;;;3.88;2.70;;;9.70;99.90;;;;;;4995814;28;20068;-78
2024/04/07 06:00:51;;;;;;;2.85;2.20;;;9.80;99.90;;;;;;4999012;28;20057;-78
2024/04/07 06:03:17;;;;;;;6.13;2.90;;;10.00;99.80;;;;;;4998735;28;20058;-79
2024/04/07 06:05:43;;;;;;;2.67;2.00;;;10.10;99.40;;;;;;4997904;28;20050;-78
2024/04/07 06:08:09;;;;;;;2.67;2.00;;;10.20;98.80;;;;;;4999548;28;20054;-78
2024/04/07 06:10:35;;;;;;;11.50;2.33;;;10.30;98.60;;;;;;4998908;28;20125;-80
2024/04/07 06:13:03;;;;;;;5.93;2.30;;;10.40;98.40;;;;;;4998639;28;20057;-79
2024/04/07 06:15:31;;;;;;;4.28;2.20;;;10.50;98.50;;;;;;4998481;28;20080;-79
2024/04/07 06:17:57;;;;;;;3.45;1.95;;;10.60;98.20;;;;;;4982517;28;20065;-80
2024/04/07 06:20:25;;;;;;;4.03;2.08;;;10.70;98.00;;;;;;4998798;28;20409;-80
2024/04/07 06:22:53;;;;;;;6.97;2.28;;;10.80;97.70;;;;;;4998146;28;20065;-80
2024/04/07 06:25:22;;;;;;;2.47;1.83;;;10.90;97.70;;;;;;4998229;28;20489;-80
2024/04/07 06:27:50;;;;;;;3.55;1.83;;;11.10;97.40;;;;;;5014658;28;20045;-80
2024/04/07 06:30:18;;;;;;;4.53;1.63;;;11.20;96.90;;;;;;4998168;28;20064;-80
2024/04/07 06:32:46;;;;;;;4.00;1.50;;;11.30;96.70;;;;;;4998529;28;20414;-80
2024/04/07 06:35:12;;;;;;;2.08;1.60;;;11.40;96.40;;;;;;4998142;28;20060;-80
2024/04/07 06:37:38;;;;;;;4.82;1.83;;;11.50;96.00;;;;;;4998106;28;20042;-80
2024/04/07 06:40:04;;;;;;;2.00;1.40;;;11.60;95.90;;;;;;4998298;28;20391;-80
2024/04/07 06:42:31;;;;;;;3.42;1.80;;;11.70;95.70;;;;;;4998166;28;20426;-80
2024/04/07 06:44:59;;;;;;;3.25;1.75;;;11.80;95.50;;;;;;4998114;28;20061;-80
2024/04/07 06:47:26;;;;;;;4.65;1.50;;;11.90;95.20;;;;;;4981559;28;20058;-80
2024/04/07 06:49:54;;;;;;;5.15;1.30;;;12.00;94.50;;;;;;4997678;28;20052;-80
2024/04/07 06:52:21;;;;;;;2.97;1.67;;;12.10;93.60;;;;;;4997311;28;20648;-80
2024/04/07 06:54:50;;;;;;;4.43;1.60;;;12.20;92.00;;;;;;4981599;28;20057;-80
2024/04/07 06:57:17;;;;;;;2.60;1.40;;;12.30;91.90;;;;;;4996719;28;20049;-80
2024/04/07 06:59:43;;;;;;;3.83;2.50;;;12.50;91.30;;;;;;4997829;28;20741;-80
2024/04/07 07:02:09;;;;;;;3.08;1.80;;;12.60;90.80;;;;;;4997646;28;20049;-80
2024/04/07 07:04:35;;;;;;;3.22;2.08;;;12.70;90.50;;;;;;4997610;28;20064;-80
2024/04/07 07:07:01;;;;;;;4.90;2.00;;;12.80;91.10;;;;;;4980934;28;20085;-80
2024/04/07 07:09:30;;;;;;;2.70;1.30;;;13.00;91.10;;;;;;4997033;28;20054;-80
2024/04/07 07:11:56;;;;;;;3.80;1.52;;;13.10;87.10;;;;;;4979704;28;20054;-80
2024/04/07 07:14:25;;;;;;;2.05;1.25;;;13.30;87.70;;;;;;4999940;28;20049;-81
2024/04/07 07:16:50;;;;;;;3.42;1.27;;;13.50;84.50;;;;;;4996254;28;20058;-80
2024/04/07 07:19:18;;;;;;;4.88;1.30;;;13.60;82.80;;;;;;4997007;28;20061;-80
2024/04/07 07:21:44;;;;;;;5.03;1.20;;;13.70;83.90;;;;;;4996292;28;20430;-83
2024/04/07 07:24:10;;;;;;;4.05;1.45;;;13.90;84.10;;;;;;4996299;28;20054;-80
2024/04/07 07:26:36;;;;;;;3.03;1.65;;;14.10;83.60;;;;;;4997065;28;20125;-80
2024/04/07 07:29:03;;;;;;;1.50;1.05;;;14.30;78.50;;;;;;4996297;28;20116;-80
2024/04/07 07:31:35;;;;;;;2.88;1.40;;;14.50;79.20;;;;;;4980350;28;20046;-80
2024/04/07 07:34:01;;;;;;;3.03;1.40;;;14.70;78.10;;;;;;4997131;28;20842;-81
2024/04/07 07:36:29;;;;;;;3.08;1.27;;;14.80;77.50;;;;;;4996380;28;20057;-80
2024/04/07 07:38:58;;;;;;;3.95;1.42;;;14.90;74.40;;;;;;5012059;28;20058;-80
2024/04/07 07:41:24;;;;;;;2.75;1.20;;;15.10;74.80;;;;;;4997100;28;20364;-80
2024/04/07 07:43:50;;;;;;;5.30;1.10;;;15.30;74.10;;;;;;4996456;28;20065;-81
2024/04/07 07:46:16;;;;;;;1.50;1.05;;;15.50;74.40;;;;;;4996827;28;20057;-80
2024/04/07 07:48:42;;;;;;;2.22;1.30;;;15.60;75.10;;;;;;4996882;28;20092;-81
2024/04/07 07:51:11;;;;;;;4.05;1.38;;;15.80;74.30;;;;;;4994723;28;20057;-81
2024/04/07 07:53:38;;;;;;;2.92;1.10;;;16.00;75.00;;;;;;4998547;28;20073;-80
2024/04/07 07:56:05;;;;;;;2.97;1.38;;;16.20;70.90;;;;;;4980368;28;20053;-80
2024/04/07 07:58:33;;;;;;;5.78;1.05;;;16.40;70.40;;;;;;4996090;28;20470;-81
2024/04/07 08:00:59;;;;;;;2.90;1.02;;;16.60;71.90;;;;;;4980045;28;20061;-81
2024/04/07 08:03:25;;;;;;;7.15;1.73;;;16.70;67.00;;;;;;4995376;28;20054;-81
2024/04/07 08:05:51;;;;;;;3.83;1.20;;;16.90;69.00;;;;;;4995073;28;20062;-81
2024/04/07 08:08:17;;;;;;;4.07;1.42;;;17.10;66.00;;;;;;4978221;28;20514;-81
2024/04/07 08:10:43;;;;;;;4.55;1.30;;;17.30;65.90;;;;;;4996184;28;20061;-81
2024/04/07 08:13:09;;;;;;;3.28;1.10;;;17.40;63.30;;;;;;4996150;28;20100;-81
2024/04/07 08:15:34;;;;;;;4.28;0.90;;;17.60;63.00;;;;;;4992675;28;20136;-81
2024/04/07 08:18:00;;;;;;;2.38;1.15;;;17.80;61.50;;;;;;4995958;28;20185;-80
2024/04/07 08:20:26;;;;;;;4.50;1.65;;;17.90;59.50;;;;;;4978846;28;20054;-81
2024/04/07 08:22:52;;;;;;;3.97;1.27;;;18.00;59.00;;;;;;4979600;28;20189;-81
2024/04/07 08:25:21;;;;;;;3.83;1.25;;;18.20;60.50;;;;;;4993886;28;20053;-82
2024/04/07 08:27:47;;;;;;;2.33;1.10;;;18.40;62.00;;;;;;4996295;28;20360;-82
2024/04/07 08:30:13;;;;;;;3.10;0.93;;;18.60;60.40;;;;;;4996300;28;20133;-81
2024/04/07 08:32:39;;;;;;;4.88;1.10;;;18.80;59.10;;;;;;4995740;28;20046;-81
2024/04/07 08:35:07;;;;;;;3.22;1.27;;;19.00;58.00;;;;;;4995932;28;20475;-81
2024/04/07 08:37:37;;;;;;;4.80;1.27;;;19.10;58.10;;;;;;4995464;28;20085;-82
2024/04/07 08:40:03;;;;;;;2.50;1.17;;;19.30;59.00;;;;;;4993654;28;20058;-81
2024/04/07 08:42:30;;;;;;;2.53;1.48;;;19.50;58.00;;;;;;4995836;28;20486;-82
2024/04/07 08:44:58;;;;;;;1.23;0.82;;;19.60;57.40;;;;;;4995706;28;20058;-81
2024/04/07 08:47:25;;;;;;;4.22;1.40;;;19.80;57.10;;;;;;4994067;28;20378;-82
2024/04/07 08:49:52;;;;;;;2.83;1.10;;;20.00;56.00;;;;;;4994345;28;20064;-82
2024/04/07 08:52:20;;;;;;;2.53;1.13;;;20.10;56.60;;;;;;4980557;28;20053;-81
2024/04/07 08:54:46;;;;;;;4.45;1.13;;;20.30;56.40;;;;;;4995717;28;20352;-81
2024/04/07 08:57:14;;;;;;;1.35;0.90;;;20.50;57.10;;;;;;4978936;28;20053;-82
2024/04/07 08:59:46;;;;;;;2.75;0.93;;;20.70;55.30;;;;;;4995318;28;20053;-82
2024/04/07 09:02:15;;;;;;;1.90;1.10;;;21.00;54.80;;;;;;4995626;28;20395;-82
2024/04/07 09:04:43;;;;;;;5.57;1.02;;;21.20;54.70;;;;;;4996039;28;20399;-82
2024/04/07 09:07:10;;;;;;;4.75;1.30;;;21.40;53.80;;;;;;4995015;28;20054;-82
2024/04/07 09:09:37;;;;;;;5.60;1.20;;;21.60;53.50;;;;;;4995445;28;20050;-82
2024/04/07 09:12:10;;;;;;;2.25;1.48;;;21.90;53.00;;;;;;4995098;28;20115;-81
2024/04/07 09:14:38;;;;;;;2.30;1.15;;;22.00;52.40;;;;;;4995150;28;20050;-81
2024/04/07 09:17:08;;;;;;;2.40;1.02;;;22.20;51.90;;;;;;4995283;28;20058;-82
2024/04/07 09:19:35;;;;;;;3.95;1.10;;;22.40;53.00;;;;;;4995408;28;20053;-82
2024/04/07 09:22:03;;;;;;;6.68;1.10;;;22.50;51.50;;;;;;4993387;28;20391;-82
2024/04/07 09:24:31;;;;;;;2.90;1.27;;;22.60;50.60;;;;;;4994990;28;20061;-82
2024/04/07 09:27:06;;;;;;;9.63;1.20;;;22.80;51.60;;;;;;4994892;28;20054;-82
2024/04/07 09:29:34;;;;;;;1.85;0.98;;;23.10;52.10;;;;;;4995044;28;20053;-82
2024/04/07 09:32:00;;;;;;;4.15;1.05;;;23.30;51.30;;;;;;4994018;28;20060;-82
2024/04/07 09:34:28;;;;;;;4.10;0.90;;;23.50;50.60;;;;;;4995103;28;20058;-82
2024/04/07 09:36:54;;;;;;;1.88;1.00;;;23.70;47.70;;;;;;4995174;28;20053;-81
2024/04/07 09:39:24;;;;;;;2.75;0.85;;;23.90;49.00;;;;;;4992108;28;20372;-83
2024/04/07 09:41:53;;;;;;;2.33;1.00;;;24.00;48.20;;;;;;5010229;28;20112;-82
2024/04/07 09:44:20;;;;;;;2.25;0.93;;;24.10;46.90;;;;;;4994805;28;20054;-83
2024/04/07 09:46:46;;;;;;;2.33;0.80;;;24.30;48.90;;;;;;4994814;28;20058;-82
2024/04/07 09:49:13;;;;;;;2.53;1.20;;;24.50;46.70;;;;;;4995071;28;20050;-82
2024/04/07 09:51:42;;;;;;;1.23;1.00;;;24.50;44.80;;;;;;5009666;28;20065;-82
2024/04/07 09:54:18;;;;;;;3.42;1.00;;;24.50;45.60;;;;;;4978738;28;20511;-82
2024/04/07 09:56:44;;;;;;;2.03;0.98;;;24.60;46.70;;;;;;4994078;28;20065;-83
2024/04/07 09:59:10;;;;;;;2.72;0.85;;;24.60;45.20;;;;;;4994948;28;20127;-82
2024/04/07 10:01:37;;;;;;;4.63;1.25;;;24.70;43.00;;;;;;4994569;28;20985;-82
2024/04/07 10:04:06;;;;;;;2.38;1.00;;;24.70;44.60;;;;;;4994904;28;20060;-83
2024/04/07 10:06:34;;;;;;;2.40;1.08;;;24.70;43.50;;;;;;4994641;28;20100;-82
2024/04/07 10:09:02;;;;;;;2.83;0.90;;;24.70;44.70;;;;;;4994462;28;20470;-83
2024/04/07 10:11:29;;;;;;;6.25;1.20;;;24.80;43.50;;;;;;4994890;28;20387;-83
2024/04/07 10:14:00;;;;;;;1.77;0.73;;;24.80;44.00;;;;;;4994811;28;20050;-83
2024/04/07 10:16:27;;;;;;;3.85;1.25;;;25.00;43.20;;;;;;4995054;28;20376;-83
2024/04/07 10:18:53;;;;;;;2.75;1.02;;;25.10;43.90;;;;;;4994583;28;20068;-82
2024/04/07 10:21:20;;;;;;;0.95;0.60;;;25.20;40.40;;;;;;5011150;28;20337;-83
2024/04/07 10:23:54;;;;;;;2.08;1.00;;;25.30;44.70;;;;;;4993595;28;20659;-83
2024/04/07 10:26:21;;;;;;;;;;;25.60;42.50;;;;;;5011464;28;20065;-82
2024/04/07 10:28:56;;;;;;;1.65;0.60;;;25.80;40.70;;;;;;5021624;28;19987;-82
2024/04/07 10:31:43;;;;;;;2.28;1.00;;;25.90;42.10;;;;;;5007385;28;20406;-83
2024/04/07 10:34:14;;;;;;;4.70;0.82;;;26.20;41.60;;;;;;4994594;28;20108;-82
2024/04/07 10:36:40;;;;;;;4.28;0.88;;;26.50;41.70;;;;;;4994493;28;20529;-83
2024/04/07 10:39:16;;;;;;;1.80;1.10;;;26.70;38.10;;;;;;4993859;28;20058;-83
2024/04/07 10:41:42;;;;;;;1.92;0.68;;;26.80;36.50;;;;;;4993231;28;20054;-83
2024/04/07 10:44:09;;;;;;;2.40;0.98;;;27.00;37.60;;;;;;4996066;28;20042;-84
2024/04/07 10:46:35;;;;;;;1.45;0.95;;;27.10;40.40;;;;;;4997835;28;20054;-83
2024/04/07 10:49:03;;;;;;;1.55;0.73;;;27.20;36.30;;;;;;4998064;28;20061;-84
2024/04/07 10:51:29;;;;;;;2.22;0.77;;;27.40;37.50;;;;;;4994540;28;20057;-83
2024/04/07 10:54:02;;;;;;;1.95;0.82;;;27.60;37.80;;;;;;4994774;28;20061;-83
2024/04/07 10:56:29;;;;;;;5.90;1.05;;;27.90;40.60;;;;;;4981665;28;20054;-81
2024/04/07 10:58:59;;;;;;;1.67;0.85;;;28.10;36.30;;;;;;4996720;28;20060;-83
2024/04/07 11:01:25;;;;;;;1.20;0.70;;;28.20;35.90;;;;;;4997047;28;20054;-82
2024/04/07 11:03:59;;;;;;;5.05;0.90;;;28.50;38.30;;;;;;4981728;28;20049;-83
2024/04/07 11:06:26;;;;;;;5.75;0.90;;;28.90;37.70;;;;;;4997582;28;20050;-84
2024/04/07 11:08:52;;;;;;;1.98;0.90;;;29.30;35.40;;;;;;4997643;28;20049;-84
2024/04/07 11:11:22;;;;;;;3.03;0.70;;;29.50;33.80;;;;;;4998118;28;20418;-83
2024/04/07 11:13:49;;;;;;;3.25;1.00;;;29.70;36.70;;;;;;4997645;28;20056;-83
2024/04/07 11:16:15;;;;;;;1.80;1.00;;;29.90;33.10;;;;;;4997435;28;20053;-84
2024/04/07 11:18:42;;;;;;;1.90;0.90;;;30.00;33.80;;;;;;5014020;28;20069;-83
2024/04/07 11:21:08;;;;;;;1.95;0.82;;;30.10;34.00;;;;;;4997675;28;20072;-83
2024/04/07 11:23:38;;;;;;;3.50;1.00;;;30.10;33.20;;;;;;4993957;28;20082;-83
2024/04/07 11:26:06;;;;;;;2.75;1.13;;;30.20;33.00;;;;;;4994629;28;20058;-82
2024/04/07 11:28:32;;;;;;;4.45;0.90;;;30.40;32.70;;;;;;4991952;28;20486;-83
2024/04/07 11:30:58;;;;;;;1.33;0.73;;;30.70;33.30;;;;;;4994421;28;20054;-84
2024/04/07 11:33:30;;;;;;;1.08;0.82;;;31.10;32.70;;;;;;5009795;28;20108;-84
2024/04/07 11:35:55;;;;;;;4.38;0.77;;;31.70;32.90;;;;;;4993899;28;20487;-81
2024/04/07 11:38:22;;;;;;;1.85;1.25;;;32.40;34.30;;;;;;4994335;28;20054;-82
2024/04/07 11:40:50;;;;;;;2.67;1.20;;;32.80;29.60;;;;;;4994442;28;20364;-81
2024/04/07 11:43:16;;;;;;;1.25;0.77;;;33.30;32.80;;;;;;4994249;28;20120;-81
2024/04/07 11:45:42;;;;;;;2.35;1.30;;;33.80;29.60;;;;;;4991323;28;20050;-81
2024/04/07 11:48:08;;;;;;;3.38;1.20;;;34.30;28.70;;;;;;4994184;28;20058;-81
2024/04/07 11:50:34;;;;;;;2.13;1.02;;;34.60;28.60;;;;;;4994206;28;20058;-83
2024/04/07 11:53:00;;;;;;;2.25;0.90;;;35.20;27.70;;;;;;4994119;28;20100;-82
2024/04/07 11:55:26;;;;;;;5.60;1.13;;;35.80;28.10;;;;;;4993242;28;20050;-83
2024/04/07 11:57:54;;;;;;;2.28;1.05;;;36.30;25.90;;;;;;4992171;28;20054;-83
2024/04/07 12:00:20;;;;;;;3.42;0.98;;;36.50;25.00;;;;;;4993777;28;20054;-82
2024/04/07 12:02:46;;;;;;;3.10;1.00;;;36.70;25.20;;;;;;4993479;28;20054;-81
2024/04/07 12:05:13;;;;;;;2.30;1.08;;;37.10;25.70;;;;;;4993715;28;20069;-82
2024/04/07 12:07:39;;;;;;;2.13;0.90;;;37.60;25.10;;;;;;4993346;28;20046;-83
2024/04/07 12:10:05;;;;;;;1.63;0.80;;;38.00;22.80;;;;;;4990089;28;20058;-83
2024/04/07 12:12:31;;;;;;;3.97;0.88;;;37.60;22.60;;;;;;4993688;28;20050;-83
2024/04/07 12:14:59;;;;;;;2.05;1.05;;;;;;;;;;4993657;28;20486;-83
2024/04/07 12:17:25;;;;;;;1.95;0.93;;;38.30;22.50;;;;;;4993105;28;20050;-82
2024/04/07 12:19:51;;;;;;;2.17;0.70;;;38.90;22.10;;;;;;4993491;28;20069;-83
2024/04/07 12:22:21;;;;;;;2.42;0.82;;;39.20;21.30;;;;;;4993584;28;20463;-82
2024/04/07 12:24:49;;;;;;;1.48;0.80;;;39.50;21.50;;;;;;4993000;28;20065;-82
2024/04/07 12:27:15;;;;;;;1.45;0.82;;;39.60;20.60;;;;;;4993203;28;20046;-83
2024/04/07 12:29:41;;;;;;;1.73;0.80;;;38.40;21.50;;;;;;4993136;28;20085;-83
2024/04/07 12:32:09;;;;;;;2.95;0.80;;;38.90;22.30;;;;;;4992889;28;20062;-82
2024/04/07 12:34:35;;;;;;;2.50;0.93;;;39.40;21.50;;;;;;4993145;28;20494;-82
2024/04/07 12:37:02;;;;;;;1.35;0.80;;;39.90;21.60;;;;;;4993045;28;20054;-83
2024/04/07 12:39:30;;;;;;;2.50;0.90;;;40.10;21.10;;;;;;4993032;28;20054;-83
2024/04/07 12:41:56;;;;;;;2.15;0.88;;;40.60;20.90;;;;;;4977080;28;20070;-82
2024/04/07 12:44:22;;;;;;;1.95;0.80;;;40.60;20.80;;;;;;4992670;28;20650;-82
2024/04/07 12:46:48;;;;;;;4.90;1.00;;;40.90;20.10;;;;;;4992386;28;20136;-82
2024/04/07 12:49:14;;;;;;;2.20;1.02;;;40.80;19.80;;;;;;4992454;28;20057;-82
2024/04/07 12:51:40;;;;;;;3.03;0.82;;;40.60;20.00;;;;;;4992521;28;20069;-83